sensor_id;sensor_type;location;lat;lon;timestamp;pressure;altitude;pressure_sealevel;temperature;humidity
74794;BME280;63320;50.768;6.724;2023-04-19T00:00:29;101105.81;;;11.90;62.95
74794;BME280;63320;50.768;6.724;2023-04-19T00:02:54;101104.81;;;11.93;62.42
74794;BME280;63320;50.768;6.724;2023-04-19T00:05:20;101113.28;;;11.78;62.71
74794;BME280;63320;50.768;6.724;2023-04-19T00:07:47;101103.38;;;11.84;63.47
74794;BME280;63320;50.768;6.724;2023-04-19T00:10:12;101107.94;;;11.79;63.17
74794;BME280;63320;50.768;6.724;2023-04-19T00:12:37;101100.84;;;11.81;63.05
74794;BME280;63320;50.768;6.724;2023-04-19T00:15:04;101098.31;;;11.78;63.53
74794;BME280;63320;50.768;6.724;2023-04-19T00:17:29;101111.06;;;11.90;62.50
74794;BME280;63320;50.768;6.724;2023-04-19T00:19:54;101100.63;;;11.64;63.59
74794;BME280;63320;50.768;6.724;2023-04-19T00:22:20;101099.31;;;11.76;62.99
74794;BME280;63320;50.768;6.724;2023-04-19T00:24:46;101099.41;;;11.73;63.80
74794;BME280;63320;50.768;6.724;2023-04-19T00:27:12;101100.00;;;11.81;63.42
74794;BME280;63320;50.768;6.724;2023-04-19T00:29:37;101095.31;;;11.65;63.66
74794;BME280;63320;50.768;6.724;2023-04-19T00:32:03;101107.25;;;11.74;63.59
74794;BME280;63320;50.768;6.724;2023-04-19T00:34:28;101103.84;;;11.72;63.50
74794;BME280;63320;50.768;6.724;2023-04-19T00:36:54;101107.00;;;11.58;64.49
74794;BME280;63320;50.768;6.724;2023-04-19T00:39:20;101101.56;;;11.63;63.81
74794;BME280;63320;50.768;6.724;2023-04-19T00:41:46;101094.63;;;11.60;64.36
74794;BME280;63320;50.768;6.724;2023-04-19T00:44:12;101102.06;;;11.73;64.08
74794;BME280;63320;50.768;6.724;2023-04-19T00:46:37;101102.91;;;11.73;64.03
74794;BME280;63320;50.768;6.724;2023-04-19T00:49:03;101103.16;;;11.67;64.22
74794;BME280;63320;50.768;6.724;2023-04-19T00:51:28;101103.44;;;11.59;64.89
74794;BME280;63320;50.768;6.724;2023-04-19T00:53:55;101099.53;;;11.70;64.20
74794;BME280;63320;50.768;6.724;2023-04-19T00:56:21;101108.44;;;11.67;64.17
74794;BME280;63320;50.768;6.724;2023-04-19T00:58:48;101093.31;;;11.72;64.58
74794;BME280;63320;50.768;6.724;2023-04-19T01:01:13;101101.28;;;11.71;64.53
74794;BME280;63320;50.768;6.724;2023-04-19T01:03:39;101093.78;;;11.60;64.45
74794;BME280;63320;50.768;6.724;2023-04-19T01:06:04;101086.19;;;11.74;64.19
74794;BME280;63320;50.768;6.724;2023-04-19T01:08:30;101083.63;;;11.49;65.13
74794;BME280;63320;50.768;6.724;2023-04-19T01:10:55;101082.94;;;11.44;65.54
74794;BME280;63320;50.768;6.724;2023-04-19T01:13:20;101085.41;;;11.49;65.12
74794;BME280;63320;50.768;6.724;2023-04-19T01:15:47;101092.22;;;11.54;65.33
74794;BME280;63320;50.768;6.724;2023-04-19T01:18:12;101082.09;;;11.44;65.52
74794;BME280;63320;50.768;6.724;2023-04-19T01:20:38;101077.56;;;11.47;66.02
74794;BME280;63320;50.768;6.724;2023-04-19T01:23:05;101077.38;;;11.30;66.35
74794;BME280;63320;50.768;6.724;2023-04-19T01:25:30;101082.34;;;11.37;66.18
74794;BME280;63320;50.768;6.724;2023-04-19T01:27:55;101075.88;;;11.23;66.76
74794;BME280;63320;50.768;6.724;2023-04-19T01:30:20;101076.88;;;11.19;66.61
74794;BME280;63320;50.768;6.724;2023-04-19T01:32:46;101078.66;;;11.18;66.99
74794;BME280;63320;50.768;6.724;2023-04-19T01:35:11;101076.72;;;11.00;67.28
74794;BME280;63320;50.768;6.724;2023-04-19T01:37:36;101078.03;;;11.11;67.44
74794;BME280;63320;50.768;6.724;2023-04-19T01:40:04;101070.25;;;10.83;68.23
74794;BME280;63320;50.768;6.724;2023-04-19T01:42:29;101075.22;;;10.93;67.70
74794;BME280;63320;50.768;6.724;2023-04-19T01:44:55;101059.34;;;10.94;67.79
74794;BME280;63320;50.768;6.724;2023-04-19T01:47:20;101057.66;;;10.93;67.22
74794;BME280;63320;50.768;6.724;2023-04-19T01:49:46;101062.97;;;10.92;67.61
74794;BME280;63320;50.768;6.724;2023-04-19T01:52:11;101066.47;;;10.92;67.91
74794;BME280;63320;50.768;6.724;2023-04-19T01:54:37;101065.75;;;10.87;67.39
74794;BME280;63320;50.768;6.724;2023-04-19T01:57:03;101057.78;;;10.90;67.88
74794;BME280;63320;50.768;6.724;2023-04-19T01:59:29;101058.47;;;10.70;68.07
74794;BME280;63320;50.768;6.724;2023-04-19T02:01:54;101060.97;;;10.73;68.40
74794;BME280;63320;50.768;6.724;2023-04-19T02:04:19;101063.03;;;10.65;68.64
74794;BME280;63320;50.768;6.724;2023-04-19T02:06:45;101056.88;;;10.66;68.77
74794;BME280;63320;50.768;6.724;2023-04-19T02:09:10;101055.16;;;10.65;68.30
74794;BME280;63320;50.768;6.724;2023-04-19T02:11:35;101050.44;;;10.50;69.18
74794;BME280;63320;50.768;6.724;2023-04-19T02:14:02;101051.16;;;10.53;69.05
74794;BME280;63320;50.768;6.724;2023-04-19T02:16:27;101050.28;;;10.54;69.03
74794;BME280;63320;50.768;6.724;2023-04-19T02:18:53;101051.69;;;10.63;68.58
74794;BME280;63320;50.768;6.724;2023-04-19T02:21:18;101054.22;;;10.66;68.27
74794;BME280;63320;50.768;6.724;2023-04-19T02:23:43;101055.69;;;10.50;68.92
74794;BME280;63320;50.768;6.724;2023-04-19T02:26:09;101054.06;;;10.19;69.39
74794;BME280;63320;50.768;6.724;2023-04-19T02:28:34;101044.06;;;10.30;69.58
74794;BME280;63320;50.768;6.724;2023-04-19T02:31:04;101049.28;;;10.32;69.69
74794;BME280;63320;50.768;6.724;2023-04-19T02:33:30;101046.41;;;10.11;70.00
74794;BME280;63320;50.768;6.724;2023-04-19T02:35:56;101037.41;;;10.19;69.86
74794;BME280;63320;50.768;6.724;2023-04-19T02:38:21;101051.59;;;10.41;69.21
74794;BME280;63320;50.768;6.724;2023-04-19T02:40:47;101039.88;;;10.23;69.87
74794;BME280;63320;50.768;6.724;2023-04-19T02:43:12;101042.88;;;10.12;70.03
74794;BME280;63320;50.768;6.724;2023-04-19T02:45:37;101041.88;;;10.17;70.47
74794;BME280;63320;50.768;6.724;2023-04-19T02:48:05;101036.75;;;10.38;69.69
74794;BME280;63320;50.768;6.724;2023-04-19T02:50:31;101038.81;;;10.30;69.24
74794;BME280;63320;50.768;6.724;2023-04-19T02:52:56;101042.84;;;10.41;68.81
74794;BME280;63320;50.768;6.724;2023-04-19T02:55:22;101048.13;;;10.12;69.47
74794;BME280;63320;50.768;6.724;2023-04-19T02:57:47;101043.00;;;10.09;70.18
74794;BME280;63320;50.768;6.724;2023-04-19T03:00:13;101038.06;;;10.27;69.89
74794;BME280;63320;50.768;6.724;2023-04-19T03:02:40;101043.56;;;10.18;70.19
74794;BME280;63320;50.768;6.724;2023-04-19T03:05:07;101041.47;;;10.29;70.49
74794;BME280;63320;50.768;6.724;2023-04-19T03:07:33;101038.50;;;10.40;69.93
74794;BME280;63320;50.768;6.724;2023-04-19T03:09:58;101023.63;;;10.38;69.72
74794;BME280;63320;50.768;6.724;2023-04-19T03:12:23;101024.75;;;10.31;70.22
74794;BME280;63320;50.768;6.724;2023-04-19T03:14:49;101027.38;;;10.05;70.91
74794;BME280;63320;50.768;6.724;2023-04-19T03:17:14;101026.16;;;10.15;71.04
74794;BME280;63320;50.768;6.724;2023-04-19T03:19:39;101024.44;;;10.14;70.95
74794;BME280;63320;50.768;6.724;2023-04-19T03:22:06;101024.59;;;10.09;71.31
74794;BME280;63320;50.768;6.724;2023-04-19T03:24:31;101020.00;;;10.16;71.09
74794;BME280;63320;50.768;6.724;2023-04-19T03:26:57;101019.00;;;10.19;70.97
74794;BME280;63320;50.768;6.724;2023-04-19T03:29:22;101018.66;;;10.31;70.86
74794;BME280;63320;50.768;6.724;2023-04-19T03:31:47;101026.41;;;10.34;70.58
74794;BME280;63320;50.768;6.724;2023-04-19T03:34:13;101018.00;;;10.24;70.60
74794;BME280;63320;50.768;6.724;2023-04-19T03:36:38;101019.44;;;10.06;71.63
74794;BME280;63320;50.768;6.724;2023-04-19T03:39:05;101017.28;;;10.18;71.71
74794;BME280;63320;50.768;6.724;2023-04-19T03:41:30;101018.56;;;10.06;71.85
74794;BME280;63320;50.768;6.724;2023-04-19T03:43:56;101009.56;;;10.13;71.97
74794;BME280;63320;50.768;6.724;2023-04-19T03:46:21;101015.31;;;10.26;71.79
74794;BME280;63320;50.768;6.724;2023-04-19T03:48:46;101009.63;;;10.38;71.15
74794;BME280;63320;50.768;6.724;2023-04-19T03:51:12;101013.59;;;10.23;71.87
74794;BME280;63320;50.768;6.724;2023-04-19T03:53:37;101012.81;;;10.21;71.76
74794;BME280;63320;50.768;6.724;2023-04-19T03:56:04;101012.09;;;10.16;72.01
74794;BME280;63320;50.768;6.724;2023-04-19T03:58:30;101011.63;;;10.31;71.61
74794;BME280;63320;50.768;6.724;2023-04-19T04:00:55;101011.19;;;10.17;72.14
74794;BME280;63320;50.768;6.724;2023-04-19T04:03:20;101017.22;;;10.21;72.26
74794;BME280;63320;50.768;6.724;2023-04-19T04:05:45;101022.69;;;10.15;72.41
74794;BME280;63320;50.768;6.724;2023-04-19T04:08:11;101021.75;;;10.16;72.57
74794;BME280;63320;50.768;6.724;2023-04-19T04:10:36;101016.38;;;10.19;72.38
74794;BME280;63320;50.768;6.724;2023-04-19T04:13:03;101021.97;;;10.09;72.88
74794;BME280;63320;50.768;6.724;2023-04-19T04:15:28;101018.31;;;10.13;72.97
74794;BME280;63320;50.768;6.724;2023-04-19T04:17:56;101017.75;;;10.04;73.10
74794;BME280;63320;50.768;6.724;2023-04-19T04:20:21;101016.56;;;10.14;73.08
74794;BME280;63320;50.768;6.724;2023-04-19T04:22:47;101017.41;;;10.15;73.02
74794;BME280;63320;50.768;6.724;2023-04-19T04:25:12;101024.84;;;10.02;73.13
74794;BME280;63320;50.768;6.724;2023-04-19T04:27:38;101022.84;;;10.08;72.16
74794;BME280;63320;50.768;6.724;2023-04-19T04:30:06;101022.09;;;9.78;72.91
74794;BME280;63320;50.768;6.724;2023-04-19T04:32:31;101025.75;;;9.74;73.73
74794;BME280;63320;50.768;6.724;2023-04-19T04:34:57;101024.22;;;9.94;73.53
74794;BME280;63320;50.768;6.724;2023-04-19T04:37:22;101026.56;;;10.03;73.33
74794;BME280;63320;50.768;6.724;2023-04-19T04:39:47;101028.88;;;10.12;72.75
74794;BME280;63320;50.768;6.724;2023-04-19T04:42:13;101028.97;;;10.09;73.19
74794;BME280;63320;50.768;6.724;2023-04-19T04:44:39;101032.66;;;10.03;73.03
74794;BME280;63320;50.768;6.724;2023-04-19T04:47:05;101029.25;;;10.01;73.42
74794;BME280;63320;50.768;6.724;2023-04-19T04:49:31;101036.75;;;10.12;73.06
74794;BME280;63320;50.768;6.724;2023-04-19T04:51:56;101037.75;;;10.09;73.32
74794;BME280;63320;50.768;6.724;2023-04-19T04:54:21;101034.97;;;10.14;73.20
74794;BME280;63320;50.768;6.724;2023-04-19T04:56:47;101027.97;;;10.13;72.99
74794;BME280;63320;50.768;6.724;2023-04-19T04:59:12;101034.28;;;10.07;73.76
74794;BME280;63320;50.768;6.724;2023-04-19T05:01:37;101040.00;;;10.20;73.25
74794;BME280;63320;50.768;6.724;2023-04-19T05:04:04;101031.28;;;10.18;73.33
74794;BME280;63320;50.768;6.724;2023-04-19T05:06:29;101036.00;;;10.08;73.22
74794;BME280;63320;50.768;6.724;2023-04-19T05:08:55;101031.50;;;10.12;73.31
74794;BME280;63320;50.768;6.724;2023-04-19T05:11:20;101035.34;;;10.30;72.97
74794;BME280;63320;50.768;6.724;2023-04-19T05:13:46;101033.28;;;10.11;73.72
74794;BME280;63320;50.768;6.724;2023-04-19T05:16:11;101033.72;;;10.26;73.43
74794;BME280;63320;50.768;6.724;2023-04-19T05:18:36;101038.84;;;10.29;73.30
74794;BME280;63320;50.768;6.724;2023-04-19T05:21:03;101041.22;;;10.36;73.15
74794;BME280;63320;50.768;6.724;2023-04-19T05:23:28;101029.38;;;10.25;73.73
74794;BME280;63320;50.768;6.724;2023-04-19T05:25:54;101037.41;;;10.19;73.98
74794;BME280;63320;50.768;6.724;2023-04-19T05:28:19;101035.41;;;10.00;74.69
74794;BME280;63320;50.768;6.724;2023-04-19T05:30:44;101040.16;;;10.16;74.38
74794;BME280;63320;50.768;6.724;2023-04-19T05:33:10;101030.88;;;10.32;73.66
74794;BME280;63320;50.768;6.724;2023-04-19T05:35:35;101033.69;;;9.99;74.65
74794;BME280;63320;50.768;6.724;2023-04-19T05:38:02;101031.88;;;10.01;74.98
74794;BME280;63320;50.768;6.724;2023-04-19T05:40:27;101034.06;;;10.13;74.27
74794;BME280;63320;50.768;6.724;2023-04-19T05:42:53;101030.44;;;10.18;74.47
74794;BME280;63320;50.768;6.724;2023-04-19T05:45:20;101031.94;;;10.26;74.13
74794;BME280;63320;50.768;6.724;2023-04-19T05:47:45;101035.50;;;10.25;74.34
74794;BME280;63320;50.768;6.724;2023-04-19T05:50:11;101031.31;;;10.45;73.46
74794;BME280;63320;50.768;6.724;2023-04-19T05:52:36;101027.84;;;10.44;73.75
74794;BME280;63320;50.768;6.724;2023-04-19T05:55:04;101025.69;;;10.30;74.46
74794;BME280;63320;50.768;6.724;2023-04-19T05:57:29;101023.22;;;10.51;74.15
74794;BME280;63320;50.768;6.724;2023-04-19T05:59:54;101021.69;;;10.44;74.71
74794;BME280;63320;50.768;6.724;2023-04-19T06:02:20;101011.19;;;10.44;74.94
74794;BME280;63320;50.768;6.724;2023-04-19T06:04:45;101016.81;;;10.58;74.63
74794;BME280;63320;50.768;6.724;2023-04-19T06:07:10;101021.75;;;10.67;74.37
74794;BME280;63320;50.768;6.724;2023-04-19T06:09:36;101019.03;;;10.70;74.34
74794;BME280;63320;50.768;6.724;2023-04-19T06:12:02;101019.56;;;10.80;74.08
74794;BME280;63320;50.768;6.724;2023-04-19T06:14:27;101020.25;;;10.85;74.17
74794;BME280;63320;50.768;6.724;2023-04-19T06:16:53;101018.31;;;10.90;73.96
74794;BME280;63320;50.768;6.724;2023-04-19T06:19:18;101018.94;;;10.97;73.68
74794;BME280;63320;50.768;6.724;2023-04-19T06:21:44;101019.84;;;10.96;73.61
74794;BME280;63320;50.768;6.724;2023-04-19T06:24:09;101019.16;;;10.91;73.34
74794;BME280;63320;50.768;6.724;2023-04-19T06:26:34;101021.66;;;10.94;73.40
74794;BME280;63320;50.768;6.724;2023-04-19T06:29:01;101024.44;;;10.91;73.23
74794;BME280;63320;50.768;6.724;2023-04-19T06:31:26;101031.72;;;10.82;72.97
74794;BME280;63320;50.768;6.724;2023-04-19T06:33:52;101027.44;;;10.80;73.13
74794;BME280;63320;50.768;6.724;2023-04-19T06:36:17;101030.19;;;10.77;72.84
74794;BME280;63320;50.768;6.724;2023-04-19T06:38:42;101038.91;;;10.77;73.04
74794;BME280;63320;50.768;6.724;2023-04-19T06:41:08;101040.69;;;10.77;73.03
74794;BME280;63320;50.768;6.724;2023-04-19T06:43:33;101037.84;;;10.83;73.02
74794;BME280;63320;50.768;6.724;2023-04-19T06:46:00;101030.53;;;10.91;72.55
74794;BME280;63320;50.768;6.724;2023-04-19T06:48:26;101039.22;;;10.93;72.46
74794;BME280;63320;50.768;6.724;2023-04-19T06:50:51;101035.03;;;10.87;72.09
74794;BME280;63320;50.768;6.724;2023-04-19T06:53:16;101033.00;;;10.96;71.32
74794;BME280;63320;50.768;6.724;2023-04-19T06:55:43;101038.28;;;10.96;71.51
74794;BME280;63320;50.768;6.724;2023-04-19T06:58:08;101033.44;;;10.83;71.64
74794;BME280;63320;50.768;6.724;2023-04-19T07:00:33;101029.16;;;10.81;71.74
74794;BME280;63320;50.768;6.724;2023-04-19T07:03:00;101027.06;;;10.91;71.47
74794;BME280;63320;50.768;6.724;2023-04-19T07:05:26;101024.53;;;10.87;71.31
74794;BME280;63320;50.768;6.724;2023-04-19T07:07:51;101018.50;;;10.84;71.10
74794;BME280;63320;50.768;6.724;2023-04-19T07:10:16;101016.56;;;10.89;70.91
74794;BME280;63320;50.768;6.724;2023-04-19T07:12:42;101012.13;;;10.91;70.62
74794;BME280;63320;50.768;6.724;2023-04-19T07:15:08;101024.34;;;10.92;70.53
74794;BME280;63320;50.768;6.724;2023-04-19T07:17:34;101028.69;;;10.93;70.34
74794;BME280;63320;50.768;6.724;2023-04-19T07:20:01;101023.00;;;11.05;70.00
74794;BME280;63320;50.768;6.724;2023-04-19T07:22:26;101018.59;;;11.06;69.74
74794;BME280;63320;50.768;6.724;2023-04-19T07:24:52;101022.00;;;11.08;69.77
74794;BME280;63320;50.768;6.724;2023-04-19T07:27:18;101021.06;;;11.10;69.50
74794;BME280;63320;50.768;6.724;2023-04-19T07:29:43;101021.84;;;11.12;68.95
74794;BME280;63320;50.768;6.724;2023-04-19T07:32:08;101013.03;;;11.13;68.35
74794;BME280;63320;50.768;6.724;2023-04-19T07:34:36;101013.50;;;11.25;68.43
74794;BME280;63320;50.768;6.724;2023-04-19T07:37:02;101009.09;;;11.25;67.97
74794;BME280;63320;50.768;6.724;2023-04-19T07:39:28;101018.63;;;11.28;67.78
74794;BME280;63320;50.768;6.724;2023-04-19T07:41:53;101015.72;;;11.35;67.55
74794;BME280;63320;50.768;6.724;2023-04-19T07:44:18;101019.03;;;11.40;67.29
74794;BME280;63320;50.768;6.724;2023-04-19T07:46:44;101009.03;;;11.49;66.84
74794;BME280;63320;50.768;6.724;2023-04-19T07:49:09;101012.41;;;11.52;66.88
74794;BME280;63320;50.768;6.724;2023-04-19T07:51:34;101001.94;;;11.51;66.57
74794;BME280;63320;50.768;6.724;2023-04-19T07:54:01;101015.91;;;11.53;66.12
74794;BME280;63320;50.768;6.724;2023-04-19T07:56:26;101003.22;;;11.62;65.87
74794;BME280;63320;50.768;6.724;2023-04-19T07:58:52;101004.22;;;11.60;65.51
74794;BME280;63320;50.768;6.724;2023-04-19T08:01:17;101007.38;;;11.68;65.62
74794;BME280;63320;50.768;6.724;2023-04-19T08:03:42;101006.66;;;11.64;65.43
74794;BME280;63320;50.768;6.724;2023-04-19T08:06:08;101001.19;;;11.69;64.77
74794;BME280;63320;50.768;6.724;2023-04-19T08:08:33;100998.53;;;11.71;64.61
74794;BME280;63320;50.768;6.724;2023-04-19T08:11:00;100996.75;;;11.71;64.48
74794;BME280;63320;50.768;6.724;2023-04-19T08:13:25;101001.50;;;11.85;64.26
74794;BME280;63320;50.768;6.724;2023-04-19T08:15:51;101002.53;;;11.79;63.57
74794;BME280;63320;50.768;6.724;2023-04-19T08:18:16;100997.34;;;11.78;64.08
74794;BME280;63320;50.768;6.724;2023-04-19T08:20:41;100996.34;;;11.82;64.20
74794;BME280;63320;50.768;6.724;2023-04-19T08:23:07;100995.16;;;11.89;63.71
74794;BME280;63320;50.768;6.724;2023-04-19T08:25:32;100999.19;;;11.98;62.73
74794;BME280;63320;50.768;6.724;2023-04-19T08:27:59;100991.81;;;11.85;63.35
74794;BME280;63320;50.768;6.724;2023-04-19T08:30:24;100990.72;;;11.89;62.79
74794;BME280;63320;50.768;6.724;2023-04-19T08:32:50;100991.16;;;12.01;62.57
74794;BME280;63320;50.768;6.724;2023-04-19T08:35:15;100992.13;;;12.20;61.89
74794;BME280;63320;50.768;6.724;2023-04-19T08:37:40;100987.22;;;12.31;61.53
74794;BME280;63320;50.768;6.724;2023-04-19T08:40:07;100982.53;;;12.38;60.55
74794;BME280;63320;50.768;6.724;2023-04-19T08:42:32;100988.75;;;12.37;60.05
74794;BME280;63320;50.768;6.724;2023-04-19T08:45:01;100980.84;;;12.37;60.04
74794;BME280;63320;50.768;6.724;2023-04-19T08:47:27;100984.41;;;12.36;60.13
74794;BME280;63320;50.768;6.724;2023-04-19T08:49:54;100984.66;;;12.50;60.27
74794;BME280;63320;50.768;6.724;2023-04-19T08:52:22;100983.56;;;12.54;59.32
74794;BME280;63320;50.768;6.724;2023-04-19T08:54:48;100982.59;;;12.57;59.39
74794;BME280;63320;50.768;6.724;2023-04-19T08:57:14;100975.94;;;12.48;59.36
74794;BME280;63320;50.768;6.724;2023-04-19T08:59:40;100973.47;;;12.45;59.23
74794;BME280;63320;50.768;6.724;2023-04-19T09:02:06;100969.81;;;12.48;59.03
74794;BME280;63320;50.768;6.724;2023-04-19T09:04:32;100963.81;;;12.44;59.00
74794;BME280;63320;50.768;6.724;2023-04-19T09:06:57;100964.63;;;12.46;59.02
74794;BME280;63320;50.768;6.724;2023-04-19T09:09:24;100960.00;;;12.51;58.54
74794;BME280;63320;50.768;6.724;2023-04-19T09:11:50;100966.56;;;12.61;58.83
74794;BME280;63320;50.768;6.724;2023-04-19T09:14:17;100947.69;;;12.70;56.88
74794;BME280;63320;50.768;6.724;2023-04-19T09:16:42;100945.41;;;12.82;57.85
74794;BME280;63320;50.768;6.724;2023-04-19T09:19:09;100950.97;;;13.13;57.12
74794;BME280;63320;50.768;6.724;2023-04-19T09:21:35;100947.56;;;12.92;56.52
74794;BME280;63320;50.768;6.724;2023-04-19T09:24:01;100951.25;;;12.88;56.24
74794;BME280;63320;50.768;6.724;2023-04-19T09:26:27;100945.28;;;13.04;55.54
74794;BME280;63320;50.768;6.724;2023-04-19T09:28:56;100948.41;;;13.12;53.70
74794;BME280;63320;50.768;6.724;2023-04-19T09:31:22;100942.56;;;13.05;53.65
74794;BME280;63320;50.768;6.724;2023-04-19T09:33:47;100943.22;;;13.10;52.67
74794;BME280;63320;50.768;6.724;2023-04-19T09:36:25;100930.69;;;13.14;53.01
74794;BME280;63320;50.768;6.724;2023-04-19T09:38:51;100931.28;;;13.02;52.73
74794;BME280;63320;50.768;6.724;2023-04-19T09:41:17;100933.00;;;13.03;52.95
74794;BME280;63320;50.768;6.724;2023-04-19T09:43:42;100927.84;;;13.00;53.24
74794;BME280;63320;50.768;6.724;2023-04-19T09:46:07;100924.94;;;13.06;54.25
74794;BME280;63320;50.768;6.724;2023-04-19T09:48:33;100916.56;;;13.15;54.30
74794;BME280;63320;50.768;6.724;2023-04-19T09:50:59;100917.59;;;13.31;53.28
74794;BME280;63320;50.768;6.724;2023-04-19T09:53:28;100911.56;;;13.46;53.69
74794;BME280;63320;50.768;6.724;2023-04-19T09:55:54;100907.72;;;13.35;53.72
74794;BME280;63320;50.768;6.724;2023-04-19T09:58:20;100905.59;;;13.24;51.62
74794;BME280;63320;50.768;6.724;2023-04-19T10:00:47;100906.88;;;13.34;50.89
74794;BME280;63320;50.768;6.724;2023-04-19T10:03:14;100899.88;;;13.33;51.17
74794;BME280;63320;50.768;6.724;2023-04-19T10:05:40;100901.41;;;13.56;50.25
74794;BME280;63320;50.768;6.724;2023-04-19T10:08:06;100892.00;;;13.51;49.61
74794;BME280;63320;50.768;6.724;2023-04-19T10:10:33;100892.44;;;13.41;49.24
74794;BME280;63320;50.768;6.724;2023-04-19T10:13:01;100897.75;;;13.59;49.51
74794;BME280;63320;50.768;6.724;2023-04-19T10:15:28;100881.66;;;13.63;48.49
74794;BME280;63320;50.768;6.724;2023-04-19T10:17:53;100894.31;;;13.74;46.83
74794;BME280;63320;50.768;6.724;2023-04-19T10:20:22;100891.38;;;13.63;46.32
74794;BME280;63320;50.768;6.724;2023-04-19T10:22:49;100886.16;;;13.79;45.61
74794;BME280;63320;50.768;6.724;2023-04-19T10:25:15;100886.88;;;13.82;46.27
74794;BME280;63320;50.768;6.724;2023-04-19T10:27:43;100882.81;;;13.92;45.95
74794;BME280;63320;50.768;6.724;2023-04-19T10:30:16;100881.41;;;13.85;45.97
74794;BME280;63320;50.768;6.724;2023-04-19T10:32:44;100876.50;;;13.95;44.57
74794;BME280;63320;50.768;6.724;2023-04-19T10:35:17;100876.88;;;14.05;44.32
74794;BME280;63320;50.768;6.724;2023-04-19T10:38:01;100883.13;;;14.04;43.24
74794;BME280;63320;50.768;6.724;2023-04-19T10:40:52;100873.72;;;13.98;42.27
74794;BME280;63320;50.768;6.724;2023-04-19T10:43:20;100877.44;;;13.94;42.87
74794;BME280;63320;50.768;6.724;2023-04-19T10:45:46;100874.00;;;14.09;43.39
74794;BME280;63320;50.768;6.724;2023-04-19T10:48:31;100873.25;;;14.07;43.64
74794;BME280;63320;50.768;6.724;2023-04-19T10:50:57;100871.38;;;14.09;43.64
74794;BME280;63320;50.768;6.724;2023-04-19T10:53:43;100862.56;;;14.09;43.86
74794;BME280;63320;50.768;6.724;2023-04-19T10:56:09;100860.97;;;14.06;44.60
74794;BME280;63320;50.768;6.724;2023-04-19T11:01:35;100857.81;;;14.15;43.52
74794;BME280;63320;50.768;6.724;2023-04-19T11:04:01;100851.44;;;14.19;43.18
74794;BME280;63320;50.768;6.724;2023-04-19T11:06:27;100854.94;;;14.20;42.63
74794;BME280;63320;50.768;6.724;2023-04-19T11:08:52;100856.09;;;14.14;42.88
74794;BME280;63320;50.768;6.724;2023-04-19T11:11:18;100843.34;;;14.22;43.17
74794;BME280;63320;50.768;6.724;2023-04-19T11:13:46;100841.06;;;14.32;42.72
74794;BME280;63320;50.768;6.724;2023-04-19T11:16:11;100842.81;;;14.49;43.96
74794;BME280;63320;50.768;6.724;2023-04-19T11:18:38;100841.56;;;14.39;42.67
74794;BME280;63320;50.768;6.724;2023-04-19T11:21:04;100836.50;;;14.18;42.66
74794;BME280;63320;50.768;6.724;2023-04-19T11:23:29;100822.19;;;14.22;42.33
74794;BME280;63320;50.768;6.724;2023-04-19T11:25:55;100828.09;;;14.43;43.22
74794;BME280;63320;50.768;6.724;2023-04-19T11:28:20;100819.84;;;14.49;41.67
74794;BME280;63320;50.768;6.724;2023-04-19T11:30:46;100826.56;;;14.39;40.98
74794;BME280;63320;50.768;6.724;2023-04-19T11:33:12;100817.03;;;14.19;42.12
74794;BME280;63320;50.768;6.724;2023-04-19T11:35:38;100810.88;;;14.36;41.46
74794;BME280;63320;50.768;6.724;2023-04-19T11:38:04;100804.31;;;14.59;41.95
74794;BME280;63320;50.768;6.724;2023-04-19T11:40:30;100803.81;;;14.68;41.31
74794;BME280;63320;50.768;6.724;2023-04-19T11:42:57;100809.63;;;14.75;40.02
74794;BME280;63320;50.768;6.724;2023-04-19T11:45:24;100800.72;;;14.60;40.85
74794;BME280;63320;50.768;6.724;2023-04-19T11:47:50;100804.25;;;14.92;39.73
74794;BME280;63320;50.768;6.724;2023-04-19T11:50:32;100805.94;;;14.93;39.30
74794;BME280;63320;50.768;6.724;2023-04-19T11:53:09;100801.06;;;14.70;38.90
74794;BME280;63320;50.768;6.724;2023-04-19T11:55:34;100787.44;;;14.77;39.85
74794;BME280;63320;50.768;6.724;2023-04-19T11:57:59;100797.84;;;14.96;40.09
74794;BME280;63320;50.768;6.724;2023-04-19T12:00:26;100786.81;;;14.88;40.04
74794;BME280;63320;50.768;6.724;2023-04-19T12:02:52;100782.41;;;15.19;39.03
74794;BME280;63320;50.768;6.724;2023-04-19T12:05:18;100788.84;;;14.99;38.85
74794;BME280;63320;50.768;6.724;2023-04-19T12:08:01;100789.00;;;15.12;37.21
74794;BME280;63320;50.768;6.724;2023-04-19T12:10:27;100784.72;;;15.39;36.99
74794;BME280;63320;50.768;6.724;2023-04-19T12:12:52;100784.16;;;15.34;36.80
74794;BME280;63320;50.768;6.724;2023-04-19T12:15:18;100776.50;;;15.44;38.24
74794;BME280;63320;50.768;6.724;2023-04-19T12:17:57;100778.41;;;15.42;37.52
74794;BME280;63320;50.768;6.724;2023-04-19T12:20:29;100772.94;;;15.59;35.37
74794;BME280;63320;50.768;6.724;2023-04-19T12:22:55;100781.41;;;15.80;35.62
74794;BME280;63320;50.768;6.724;2023-04-19T12:25:27;100778.84;;;15.64;35.50
74794;BME280;63320;50.768;6.724;2023-04-19T12:27:52;100773.44;;;15.66;35.51
74794;BME280;63320;50.768;6.724;2023-04-19T12:30:17;100757.75;;;15.91;35.60
74794;BME280;63320;50.768;6.724;2023-04-19T12:32:43;100758.97;;;16.00;35.20
74794;BME280;63320;50.768;6.724;2023-04-19T12:35:09;100765.69;;;15.91;35.00
74794;BME280;63320;50.768;6.724;2023-04-19T12:37:34;100763.63;;;16.11;34.08
74794;BME280;63320;50.768;6.724;2023-04-19T12:39:59;100770.44;;;15.86;33.77
74794;BME280;63320;50.768;6.724;2023-04-19T12:42:26;100759.72;;;16.16;34.89
74794;BME280;63320;50.768;6.724;2023-04-19T12:44:51;100752.16;;;16.10;34.56
74794;BME280;63320;50.768;6.724;2023-04-19T12:47:17;100746.66;;;16.13;33.49